Ja, det är nog det vanligaste SMS’et jag får nuförtiden. Hösten i Sverige är verkligen inte en flygares dröm.

Men visst finns det fantastiskt fina höstdagar, hoppas bara jag har bokat in en flygtid nästa gång!

Kolla på denna TAF:en.

140830Z 1409/1418 15010KT 6000 -DZ BR BKN008 TEMPO 1409/1411 3000 -RA BR BKN004 PROB30 1411/1418 SCT010=